Main page
METAR-TAF:

METAR-TAF

Airports :

RAF Woodvale

Woodvale, England

latitude: 53-34-54N, longitude: 003-03-20W, elevation: 11 m

Current weather observation

The report was made 20 hours and 47 minutes ago, at 06:50 UTC
Wind 3 kt from the South/Southwest
Temperature 9°C
Humidity 93%
Pressure 1017 hPa
Visibility 10 km or more
Few clouds at a height of 4500 ft
Overcast at a height of 15000 ft

METAR: EGOW 220650Z 20003KT 9999 FEW045 OVC150 09/08 Q1017 BLU

Time: 04:37 (03:37 UTC)


TAF: missing

Weather observations and forecasts of more than 4000 airports (METAR and TAF reports).

The available stations are represented by yellow and red dots on the map.

Hover mouse over dot to see the name of the station.

Then click to see weather observations and forecasts.

To change the map : click on the green buttons with a black cross to zoom in, on the green button with a dash to zoom out, or on the green arrows for adjacent maps.


METAR-TAF: